sensor_id;sensor_type;location;lat;lon;timestamp;pressure;altitude;pressure_sealevel;temperature;humidity
37020;BME280;22932;52.442;16.896;2022-11-27T04:04:32;101842.90;;;3.89;100.00
37020;BME280;22932;52.442;16.896;2022-11-27T04:07:02;101843.78;;;3.89;100.00
37020;BME280;22932;52.442;16.896;2022-11-27T04:09:31;101848.91;;;3.89;100.00
37020;BME280;22932;52.442;16.896;2022-11-27T04:12:00;101851.70;;;3.91;100.00
37020;BME280;22932;52.442;16.896;2022-11-27T04:14:29;101847.54;;;3.93;100.00
37020;BME280;22932;52.442;16.896;2022-11-27T04:16:58;101844.11;;;3.94;100.00
37020;BME280;22932;52.442;16.896;2022-11-27T04:19:28;101845.48;;;3.95;100.00
37020;BME280;22932;52.442;16.896;2022-11-27T04:21:57;101843.48;;;3.96;100.00
37020;BME280;22932;52.442;16.896;2022-11-27T04:24:26;101836.15;;;3.97;100.00
37020;BME280;22932;52.442;16.896;2022-11-27T04:26:55;101829.92;;;3.97;100.00
37020;BME280;22932;52.442;16.896;2022-11-27T04:29:24;101826.10;;;3.98;100.00
37020;BME280;22932;52.442;16.896;2022-11-27T04:31:54;101819.30;;;3.99;100.00
37020;BME280;22932;52.442;16.896;2022-11-27T04:34:23;101818.54;;;4.00;100.00
37020;BME280;22932;52.442;16.896;2022-11-27T04:36:52;101816.17;;;4.01;100.00
37020;BME280;22932;52.442;16.896;2022-11-27T04:39:22;101813.86;;;4.01;100.00
37020;BME280;22932;52.442;16.896;2022-11-27T04:41:51;101813.89;;;4.01;100.00
37020;BME280;22932;52.442;16.896;2022-11-27T04:44:20;101817.76;;;4.02;100.00
37020;BME280;22932;52.442;16.896;2022-11-27T04:46:50;101818.09;;;4.02;100.00
37020;BME280;22932;52.442;16.896;2022-11-27T04:49:19;101818.79;;;4.03;100.00
37020;BME280;22932;52.442;16.896;2022-11-27T04:51:48;101817.54;;;4.03;100.00
37020;BME280;22932;52.442;16.896;2022-11-27T04:54:17;101824.27;;;4.03;100.00
37020;BME280;22932;52.442;16.896;2022-11-27T04:56:47;101827.64;;;4.04;100.00
37020;BME280;22932;52.442;16.896;2022-11-27T04:59:16;101828.32;;;4.05;100.00
37020;BME280;22932;52.442;16.896;2022-11-27T05:01:45;101828.52;;;4.04;100.00
37020;BME280;22932;52.442;16.896;2022-11-27T05:04:14;101825.67;;;4.04;100.00
37020;BME280;22932;52.442;16.896;2022-11-27T05:06:44;101826.21;;;4.04;100.00
37020;BME280;22932;52.442;16.896;2022-11-27T05:09:13;101829.23;;;4.04;100.00
37020;BME280;22932;52.442;16.896;2022-11-27T05:11:44;101829.59;;;4.04;100.00
37020;BME280;22932;52.442;16.896;2022-11-27T05:14:16;101833.67;;;4.05;100.00
37020;BME280;22932;52.442;16.896;2022-11-27T05:16:51;101837.04;;;4.05;100.00
37020;BME280;22932;52.442;16.896;2022-11-27T05:19:22;101829.38;;;4.05;100.00
37020;BME280;22932;52.442;16.896;2022-11-27T05:21:52;101826.33;;;4.05;100.00
37020;BME280;22932;52.442;16.896;2022-11-27T05:24:24;101829.88;;;4.06;100.00
37020;BME280;22932;52.442;16.896;2022-11-27T05:26:54;101836.30;;;4.06;100.00
37020;BME280;22932;52.442;16.896;2022-11-27T05:29:24;101834.33;;;4.06;100.00
37020;BME280;22932;52.442;16.896;2022-11-27T05:31:53;101840.17;;;4.07;100.00
37020;BME280;22932;52.442;16.896;2022-11-27T05:34:23;101843.39;;;4.07;100.00
37020;BME280;22932;52.442;16.896;2022-11-27T05:36:52;101838.91;;;4.07;100.00
37020;BME280;22932;52.442;16.896;2022-11-27T05:39:21;101834.81;;;4.07;100.00
37020;BME280;22932;52.442;16.896;2022-11-27T05:41:51;101838.52;;;4.08;100.00
37020;BME280;22932;52.442;16.896;2022-11-27T05:44:20;101838.84;;;4.09;100.00
37020;BME280;22932;52.442;16.896;2022-11-27T05:46:49;101837.54;;;4.10;100.00
37020;BME280;22932;52.442;16.896;2022-11-27T05:49:18;101837.99;;;4.13;100.00
37020;BME280;22932;52.442;16.896;2022-11-27T05:51:48;101834.85;;;4.15;100.00
37020;BME280;22932;52.442;16.896;2022-11-27T05:54:17;101840.48;;;4.17;100.00
37020;BME280;22932;52.442;16.896;2022-11-27T05:56:47;101839.16;;;4.19;100.00
37020;BME280;22932;52.442;16.896;2022-11-27T05:59:16;101841.60;;;4.20;100.00
37020;BME280;22932;52.442;16.896;2022-11-27T06:01:45;101837.88;;;4.20;100.00
37020;BME280;22932;52.442;16.896;2022-11-27T06:04:16;101839.73;;;4.18;100.00
37020;BME280;22932;52.442;16.896;2022-11-27T06:06:45;101838.32;;;4.18;100.00
37020;BME280;22932;52.442;16.896;2022-11-27T06:09:14;101841.20;;;4.17;100.00
37020;BME280;22932;52.442;16.896;2022-11-27T06:11:44;101838.59;;;4.16;100.00
37020;BME280;22932;52.442;16.896;2022-11-27T06:14:13;101840.07;;;4.14;100.00
37020;BME280;22932;52.442;16.896;2022-11-27T06:16:42;101844.30;;;4.11;100.00
37020;BME280;22932;52.442;16.896;2022-11-27T06:19:11;101846.14;;;4.09;100.00
37020;BME280;22932;52.442;16.896;2022-11-27T06:21:41;101852.98;;;4.07;100.00
37020;BME280;22932;52.442;16.896;2022-11-27T06:24:11;101845.70;;;4.07;100.00
37020;BME280;22932;52.442;16.896;2022-11-27T06:26:40;101848.02;;;4.07;100.00
37020;BME280;22932;52.442;16.896;2022-11-27T06:29:10;101847.71;;;4.06;100.00
37020;BME280;22932;52.442;16.896;2022-11-27T06:31:40;101848.43;;;4.06;100.00
37020;BME280;22932;52.442;16.896;2022-11-27T06:34:11;101848.28;;;4.05;100.00
37020;BME280;22932;52.442;16.896;2022-11-27T06:36:41;101848.13;;;4.04;100.00
37020;BME280;22932;52.442;16.896;2022-11-27T06:39:11;101850.80;;;4.04;100.00
37020;BME280;22932;52.442;16.896;2022-11-27T06:41:40;101855.52;;;4.02;100.00
37020;BME280;22932;52.442;16.896;2022-11-27T06:44:10;101859.81;;;4.02;100.00
37020;BME280;22932;52.442;16.896;2022-11-27T06:46:39;101863.92;;;4.02;100.00
37020;BME280;22932;52.442;16.896;2022-11-27T06:49:09;101861.20;;;4.03;100.00
37020;BME280;22932;52.442;16.896;2022-11-27T06:51:38;101862.02;;;4.05;100.00
37020;BME280;22932;52.442;16.896;2022-11-27T06:54:08;101858.17;;;4.07;100.00
37020;BME280;22932;52.442;16.896;2022-11-27T06:56:37;101858.08;;;4.10;100.00
37020;BME280;22932;52.442;16.896;2022-11-27T06:59:06;101864.05;;;4.12;100.00
37020;BME280;22932;52.442;16.896;2022-11-27T07:01:35;101860.40;;;4.14;100.00
37020;BME280;22932;52.442;16.896;2022-11-27T07:04:05;101858.85;;;4.17;100.00
37020;BME280;22932;52.442;16.896;2022-11-27T07:06:34;101854.40;;;4.17;100.00
37020;BME280;22932;52.442;16.896;2022-11-27T07:09:04;101852.77;;;4.17;100.00
37020;BME280;22932;52.442;16.896;2022-11-27T07:11:34;101850.06;;;4.18;100.00
37020;BME280;22932;52.442;16.896;2022-11-27T07:14:05;101851.62;;;4.19;100.00
37020;BME280;22932;52.442;16.896;2022-11-27T07:16:35;101852.25;;;4.22;100.00
37020;BME280;22932;52.442;16.896;2022-11-27T07:19:06;101852.71;;;4.23;100.00
37020;BME280;22932;52.442;16.896;2022-11-27T07:21:34;101853.19;;;4.24;100.00
37020;BME280;22932;52.442;16.896;2022-11-27T07:24:04;101852.38;;;4.27;100.00
37020;BME280;22932;52.442;16.896;2022-11-27T07:26:33;101851.24;;;4.28;100.00
37020;BME280;22932;52.442;16.896;2022-11-27T07:29:02;101846.31;;;4.31;100.00
37020;BME280;22932;52.442;16.896;2022-11-27T07:31:31;101842.28;;;4.33;100.00
37020;BME280;22932;52.442;16.896;2022-11-27T07:34:01;101839.52;;;4.35;100.00
37020;BME280;22932;52.442;16.896;2022-11-27T07:36:31;101836.27;;;4.36;100.00
37020;BME280;22932;52.442;16.896;2022-11-27T07:39:00;101835.90;;;4.37;100.00
37020;BME280;22932;52.442;16.896;2022-11-27T07:41:29;101838.02;;;4.37;100.00
37020;BME280;22932;52.442;16.896;2022-11-27T07:43:58;101834.73;;;4.39;100.00
37020;BME280;22932;52.442;16.896;2022-11-27T07:46:28;101834.85;;;4.40;100.00
37020;BME280;22932;52.442;16.896;2022-11-27T07:48:58;101841.45;;;4.41;100.00
37020;BME280;22932;52.442;16.896;2022-11-27T07:51:28;101838.77;;;4.41;100.00
37020;BME280;22932;52.442;16.896;2022-11-27T07:53:58;101840.33;;;4.42;100.00
37020;BME280;22932;52.442;16.896;2022-11-27T07:56:27;101835.50;;;4.42;100.00
37020;BME280;22932;52.442;16.896;2022-11-27T07:58:57;101835.02;;;4.45;100.00
37020;BME280;22932;52.442;16.896;2022-11-27T08:01:27;101836.38;;;4.47;100.00
37020;BME280;22932;52.442;16.896;2022-11-27T08:03:56;101834.17;;;4.48;100.00
37020;BME280;22932;52.442;16.896;2022-11-27T08:06:26;101834.88;;;4.48;100.00
37020;BME280;22932;52.442;16.896;2022-11-27T08:08:56;101835.53;;;4.50;100.00
37020;BME280;22932;52.442;16.896;2022-11-27T08:11:27;101839.62;;;4.50;100.00
37020;BME280;22932;52.442;16.896;2022-11-27T08:13:59;101843.87;;;4.51;100.00
37020;BME280;22932;52.442;16.896;2022-11-27T08:16:27;101845.09;;;4.52;100.00
37020;BME280;22932;52.442;16.896;2022-11-27T08:18:56;101842.35;;;4.53;100.00
37020;BME280;22932;52.442;16.896;2022-11-27T08:21:27;101844.30;;;4.53;100.00
37020;BME280;22932;52.442;16.896;2022-11-27T08:23:58;101844.86;;;4.53;100.00
37020;BME280;22932;52.442;16.896;2022-11-27T08:26:27;101846.46;;;4.53;100.00
37020;BME280;22932;52.442;16.896;2022-11-27T08:28:57;101846.42;;;4.53;100.00
37020;BME280;22932;52.442;16.896;2022-11-27T08:31:26;101849.78;;;4.54;100.00
37020;BME280;22932;52.442;16.896;2022-11-27T08:33:55;101848.28;;;4.56;100.00
37020;BME280;22932;52.442;16.896;2022-11-27T08:36:26;101847.11;;;4.58;100.00
37020;BME280;22932;52.442;16.896;2022-11-27T08:38:55;101847.39;;;4.60;100.00
37020;BME280;22932;52.442;16.896;2022-11-27T08:41:25;101847.27;;;4.63;100.00
37020;BME280;22932;52.442;16.896;2022-11-27T08:43:54;101849.53;;;4.64;100.00
37020;BME280;22932;52.442;16.896;2022-11-27T08:46:23;101850.17;;;4.66;100.00
37020;BME280;22932;52.442;16.896;2022-11-27T08:48:53;101848.89;;;4.67;100.00
37020;BME280;22932;52.442;16.896;2022-11-27T08:51:22;101845.42;;;4.68;100.00
37020;BME280;22932;52.442;16.896;2022-11-27T08:53:52;101846.61;;;4.70;100.00
37020;BME280;22932;52.442;16.896;2022-11-27T08:56:25;101848.66;;;4.72;100.00
37020;BME280;22932;52.442;16.896;2022-11-27T08:58:54;101847.34;;;4.74;100.00
37020;BME280;22932;52.442;16.896;2022-11-27T09:01:25;101845.68;;;4.74;100.00
37020;BME280;22932;52.442;16.896;2022-11-27T09:03:54;101845.48;;;4.75;100.00
37020;BME280;22932;52.442;16.896;2022-11-27T09:06:26;101843.44;;;4.77;100.00
37020;BME280;22932;52.442;16.896;2022-11-27T09:08:58;101842.92;;;4.80;100.00
37020;BME280;22932;52.442;16.896;2022-11-27T09:11:28;101844.15;;;4.81;100.00
37020;BME280;22932;52.442;16.896;2022-11-27T09:14:00;101843.22;;;4.82;100.00
37020;BME280;22932;52.442;16.896;2022-11-27T09:16:30;101846.54;;;4.83;100.00
37020;BME280;22932;52.442;16.896;2022-11-27T09:18:59;101841.21;;;4.83;100.00
37020;BME280;22932;52.442;16.896;2022-11-27T09:21:30;101840.66;;;4.83;100.00
37020;BME280;22932;52.442;16.896;2022-11-27T09:24:00;101838.85;;;4.84;100.00
37020;BME280;22932;52.442;16.896;2022-11-27T09:26:30;101838.48;;;4.84;100.00
37020;BME280;22932;52.442;16.896;2022-11-27T09:28:59;101841.63;;;4.86;100.00
37020;BME280;22932;52.442;16.896;2022-11-27T09:31:28;101842.66;;;4.87;100.00
37020;BME280;22932;52.442;16.896;2022-11-27T09:33:58;101837.29;;;4.87;100.00
37020;BME280;22932;52.442;16.896;2022-11-27T09:36:28;101836.91;;;4.88;100.00
37020;BME280;22932;52.442;16.896;2022-11-27T09:38:58;101828.27;;;4.89;100.00
37020;BME280;22932;52.442;16.896;2022-11-27T09:41:39;101828.75;;;4.90;100.00
37020;BME280;22932;52.442;16.896;2022-11-27T09:44:25;101821.31;;;4.93;100.00
37020;BME280;22932;52.442;16.896;2022-11-27T09:47:00;101818.95;;;4.98;100.00
37020;BME280;22932;52.442;16.896;2022-11-27T09:49:38;101823.89;;;5.07;100.00
37020;BME280;22932;52.442;16.896;2022-11-27T09:52:13;101821.96;;;5.14;100.00
37020;BME280;22932;52.442;16.896;2022-11-27T09:54:54;101818.54;;;5.18;100.00
37020;BME280;22932;52.442;16.896;2022-11-27T19:07:15;101533.15;;;4.57;99.42
37020;BME280;22932;52.442;16.896;2022-11-27T19:09:44;101529.25;;;4.57;99.45
37020;BME280;22932;52.442;16.896;2022-11-27T19:12:13;101532.28;;;4.57;99.45
37020;BME280;22932;52.442;16.896;2022-11-27T19:14:43;101528.40;;;4.56;99.44
37020;BME280;22932;52.442;16.896;2022-11-27T19:17:12;101526.29;;;4.56;99.30
37020;BME280;22932;52.442;16.896;2022-11-27T19:19:41;101516.52;;;4.55;99.26
37020;BME280;22932;52.442;16.896;2022-11-27T19:22:11;101511.52;;;4.55;99.41
37020;BME280;22932;52.442;16.896;2022-11-27T19:24:40;101503.71;;;4.54;99.31
37020;BME280;22932;52.442;16.896;2022-11-27T19:27:09;101505.41;;;4.52;99.24
37020;BME280;22932;52.442;16.896;2022-11-27T19:29:38;101496.91;;;4.51;99.32
37020;BME280;22932;52.442;16.896;2022-11-27T19:32:08;101494.99;;;4.50;99.28
37020;BME280;22932;52.442;16.896;2022-11-27T19:34:37;101490.94;;;4.49;99.21
37020;BME280;22932;52.442;16.896;2022-11-27T19:37:07;101490.83;;;4.47;99.26
37020;BME280;22932;52.442;16.896;2022-11-27T19:39:36;101484.48;;;4.46;99.14
37020;BME280;22932;52.442;16.896;2022-11-27T19:42:06;101483.11;;;4.45;99.12
37020;BME280;22932;52.442;16.896;2022-11-27T19:44:36;101477.17;;;4.42;99.02
37020;BME280;22932;52.442;16.896;2022-11-27T19:47:05;101474.95;;;4.40;99.11
37020;BME280;22932;52.442;16.896;2022-11-27T19:49:36;101470.97;;;4.38;98.99
37020;BME280;22932;52.442;16.896;2022-11-27T19:52:05;101473.58;;;4.35;99.02
37020;BME280;22932;52.442;16.896;2022-11-27T19:54:35;101469.05;;;4.33;99.06
37020;BME280;22932;52.442;16.896;2022-11-27T19:57:04;101472.23;;;4.30;98.93
37020;BME280;22932;52.442;16.896;2022-11-27T19:59:33;101473.23;;;4.28;99.00
37020;BME280;22932;52.442;16.896;2022-11-27T20:02:03;101470.48;;;4.26;98.95
37020;BME280;22932;52.442;16.896;2022-11-27T20:04:32;101466.55;;;4.22;98.73
37020;BME280;22932;52.442;16.896;2022-11-27T20:07:01;101471.33;;;4.19;98.86
37020;BME280;22932;52.442;16.896;2022-11-27T20:09:31;101469.45;;;4.18;98.92
37020;BME280;22932;52.442;16.896;2022-11-27T20:12:01;101464.37;;;4.16;98.83
37020;BME280;22932;52.442;16.896;2022-11-27T20:14:30;101460.95;;;4.13;98.84
37020;BME280;22932;52.442;16.896;2022-11-27T20:16:59;101458.73;;;4.10;98.89
37020;BME280;22932;52.442;16.896;2022-11-27T20:19:28;101458.23;;;4.10;99.08
37020;BME280;22932;52.442;16.896;2022-11-27T20:21:58;101454.34;;;4.09;99.06
37020;BME280;22932;52.442;16.896;2022-11-27T20:24:27;101453.66;;;4.08;99.04
37020;BME280;22932;52.442;16.896;2022-11-27T20:26:56;101455.81;;;4.08;99.11
37020;BME280;22932;52.442;16.896;2022-11-27T20:29:26;101455.70;;;4.07;99.08
37020;BME280;22932;52.442;16.896;2022-11-27T20:31:55;101452.69;;;4.06;99.15
37020;BME280;22932;52.442;16.896;2022-11-27T20:34:24;101451.30;;;4.06;99.13
37020;BME280;22932;52.442;16.896;2022-11-27T20:36:53;101448.14;;;4.04;99.06
37020;BME280;22932;52.442;16.896;2022-11-27T20:39:23;101446.02;;;4.04;99.06
37020;BME280;22932;52.442;16.896;2022-11-27T20:41:54;101447.00;;;4.02;98.98
37020;BME280;22932;52.442;16.896;2022-11-27T20:44:23;101451.20;;;4.00;98.89
37020;BME280;22932;52.442;16.896;2022-11-27T20:46:54;101451.17;;;3.97;98.63
37020;BME280;22932;52.442;16.896;2022-11-27T20:49:24;101453.83;;;3.94;98.47
37020;BME280;22932;52.442;16.896;2022-11-27T20:51:53;101453.14;;;3.89;98.24
37020;BME280;22932;52.442;16.896;2022-11-27T20:54:23;101447.17;;;3.83;98.21
37020;BME280;22932;52.442;16.896;2022-11-27T20:56:52;101445.05;;;3.79;98.27
37020;BME280;22932;52.442;16.896;2022-11-27T20:59:21;101446.13;;;3.75;98.25
37020;BME280;22932;52.442;16.896;2022-11-27T21:01:51;101446.08;;;3.72;98.39
37020;BME280;22932;52.442;16.896;2022-11-27T21:04:24;101446.45;;;3.72;98.64
37020;BME280;22932;52.442;16.896;2022-11-27T21:06:54;101444.30;;;3.73;98.79
37020;BME280;22932;52.442;16.896;2022-11-27T21:09:24;101442.69;;;3.72;98.85
37020;BME280;22932;52.442;16.896;2022-11-27T21:11:54;101443.77;;;3.72;98.91
37020;BME280;22932;52.442;16.896;2022-11-27T21:14:23;101444.20;;;3.71;98.86
37020;BME280;22932;52.442;16.896;2022-11-27T21:16:52;101442.14;;;3.69;98.77
37020;BME280;22932;52.442;16.896;2022-11-27T21:19:23;101438.10;;;3.68;98.72
37020;BME280;22932;52.442;16.896;2022-11-27T21:21:53;101439.58;;;3.66;98.69
37020;BME280;22932;52.442;16.896;2022-11-27T21:24:24;101439.87;;;3.64;98.72
37020;BME280;22932;52.442;16.896;2022-11-27T21:26:55;101441.91;;;3.62;98.65
37020;BME280;22932;52.442;16.896;2022-11-27T21:29:24;101437.73;;;3.60;98.70
37020;BME280;22932;52.442;16.896;2022-11-27T21:31:55;101434.23;;;3.59;98.80
37020;BME280;22932;52.442;16.896;2022-11-27T21:34:25;101435.90;;;3.58;98.84
37020;BME280;22932;52.442;16.896;2022-11-27T21:36:54;101433.43;;;3.57;98.78
37020;BME280;22932;52.442;16.896;2022-11-27T21:39:24;101433.25;;;3.57;98.75
37020;BME280;22932;52.442;16.896;2022-11-27T21:41:55;101437.94;;;3.56;98.72
37020;BME280;22932;52.442;16.896;2022-11-27T21:44:25;101436.25;;;3.54;98.76
37020;BME280;22932;52.442;16.896;2022-11-27T21:46:54;101432.94;;;3.52;98.60
37020;BME280;22932;52.442;16.896;2022-11-27T21:49:23;101430.86;;;3.51;98.76
37020;BME280;22932;52.442;16.896;2022-11-27T21:51:53;101426.93;;;3.51;98.89
37020;BME280;22932;52.442;16.896;2022-11-27T21:54:23;101431.74;;;3.51;98.77
37020;BME280;22932;52.442;16.896;2022-11-27T21:56:52;101424.45;;;3.51;98.73
37020;BME280;22932;52.442;16.896;2022-11-27T21:59:22;101419.36;;;3.49;98.75
37020;BME280;22932;52.442;16.896;2022-11-27T22:01:51;101417.44;;;3.49;98.72
37020;BME280;22932;52.442;16.896;2022-11-27T22:04:20;101420.12;;;3.48;98.77
37020;BME280;22932;52.442;16.896;2022-11-27T22:06:49;101417.30;;;3.48;98.73
37020;BME280;22932;52.442;16.896;2022-11-27T22:09:19;101418.40;;;3.47;98.80
37020;BME280;22932;52.442;16.896;2022-11-27T22:11:48;101417.37;;;3.46;98.77
37020;BME280;22932;52.442;16.896;2022-11-27T22:14:20;101419.07;;;3.44;98.50
37020;BME280;22932;52.442;16.896;2022-11-27T22:16:49;101419.86;;;3.42;98.54
37020;BME280;22932;52.442;16.896;2022-11-27T22:19:18;101424.14;;;3.42;98.43
37020;BME280;22932;52.442;16.896;2022-11-27T22:21:48;101423.73;;;3.39;98.38
37020;BME280;22932;52.442;16.896;2022-11-27T22:24:17;101417.12;;;3.40;98.57
37020;BME280;22932;52.442;16.896;2022-11-27T22:26:47;101415.89;;;3.39;98.57
37020;BME280;22932;52.442;16.896;2022-11-27T22:29:16;101412.88;;;3.39;98.60
37020;BME280;22932;52.442;16.896;2022-11-27T22:31:45;101414.21;;;3.37;98.25
37020;BME280;22932;52.442;16.896;2022-11-27T22:34:15;101414.80;;;3.35;98.27
37020;BME280;22932;52.442;16.896;2022-11-27T22:36:45;101406.59;;;3.36;98.45
37020;BME280;22932;52.442;16.896;2022-11-27T22:39:14;101403.06;;;3.35;98.50
37020;BME280;22932;52.442;16.896;2022-11-27T22:41:43;101396.45;;;3.32;98.13
37020;BME280;22932;52.442;16.896;2022-11-27T22:44:16;101396.11;;;3.28;97.83
37020;BME280;22932;52.442;16.896;2022-11-27T22:46:45;101392.41;;;3.23;97.67
37020;BME280;22932;52.442;16.896;2022-11-27T22:49:16;101393.34;;;3.18;97.63
37020;BME280;22932;52.442;16.896;2022-11-27T22:51:46;101394.15;;;3.16;97.70
37020;BME280;22932;52.442;16.896;2022-11-27T22:54:16;101395.13;;;3.14;97.73
37020;BME280;22932;52.442;16.896;2022-11-27T22:56:46;101393.05;;;3.13;97.80
37020;BME280;22932;52.442;16.896;2022-11-27T22:59:16;101388.28;;;3.12;97.90
37020;BME280;22932;52.442;16.896;2022-11-27T23:01:45;101388.95;;;3.09;97.76
37020;BME280;22932;52.442;16.896;2022-11-27T23:04:15;101385.39;;;3.05;97.56
37020;BME280;22932;52.442;16.896;2022-11-27T23:06:44;101388.20;;;3.02;97.58
37020;BME280;22932;52.442;16.896;2022-11-27T23:09:15;101392.21;;;2.99;97.68
37020;BME280;22932;52.442;16.896;2022-11-27T23:11:47;101395.18;;;2.97;97.64
37020;BME280;22932;52.442;16.896;2022-11-27T23:14:15;101394.63;;;2.93;97.47
37020;BME280;22932;52.442;16.896;2022-11-27T23:16:44;101390.86;;;2.89;97.45
37020;BME280;22932;52.442;16.896;2022-11-27T23:19:13;101388.67;;;2.83;97.28
37020;BME280;22932;52.442;16.896;2022-11-27T23:21:43;101388.84;;;2.79;97.42
37020;BME280;22932;52.442;16.896;2022-11-27T23:24:13;101388.85;;;2.74;97.27
37020;BME280;22932;52.442;16.896;2022-11-27T23:26:41;101388.85;;;2.70;97.18
37020;BME280;22932;52.442;16.896;2022-11-27T23:29:11;101388.49;;;2.66;97.29
37020;BME280;22932;52.442;16.896;2022-11-27T23:31:41;101387.05;;;2.63;97.22
37020;BME280;22932;52.442;16.896;2022-11-27T23:34:12;101388.77;;;2.60;97.25
37020;BME280;22932;52.442;16.896;2022-11-27T23:36:43;101391.42;;;2.56;97.29
37020;BME280;22932;52.442;16.896;2022-11-27T23:39:13;101391.91;;;2.52;97.13
37020;BME280;22932;52.442;16.896;2022-11-27T23:41:43;101387.22;;;2.50;97.23
37020;BME280;22932;52.442;16.896;2022-11-27T23:44:13;101388.55;;;2.48;97.23
37020;BME280;22932;52.442;16.896;2022-11-27T23:46:42;101381.56;;;2.45;97.17
37020;BME280;22932;52.442;16.896;2022-11-27T23:49:12;101382.77;;;2.42;96.95
37020;BME280;22932;52.442;16.896;2022-11-27T23:51:41;101381.45;;;2.40;97.00
37020;BME280;22932;52.442;16.896;2022-11-27T23:54:11;101386.03;;;2.36;96.87
37020;BME280;22932;52.442;16.896;2022-11-27T23:56:40;101388.66;;;2.33;96.78
37020;BME280;22932;52.442;16.896;2022-11-27T23:59:11;101386.70;;;2.28;96.56
